sensor_id;sensor_type;location;lat;lon;timestamp;temperature;humidity
7842;DHT22;3966;51.052;13.820;2023-04-24T00:02:15;15.20;99.90
7842;DHT22;3966;51.052;13.820;2023-04-24T00:04:41;15.20;99.90
7842;DHT22;3966;51.052;13.820;2023-04-24T00:07:10;15.20;99.90
7842;DHT22;3966;51.052;13.820;2023-04-24T00:09:36;15.00;99.90
7842;DHT22;3966;51.052;13.820;2023-04-24T00:12:01;14.80;99.90
7842;DHT22;3966;51.052;13.820;2023-04-24T00:14:30;14.90;99.90
7842;DHT22;3966;51.052;13.820;2023-04-24T00:16:55;14.60;99.90
7842;DHT22;3966;51.052;13.820;2023-04-24T00:19:21;14.20;99.90
7842;DHT22;3966;51.052;13.820;2023-04-24T00:21:47;14.20;99.90
7842;DHT22;3966;51.052;13.820;2023-04-24T00:24:15;14.10;99.90
7842;DHT22;3966;51.052;13.820;2023-04-24T00:26:41;14.30;99.90
7842;DHT22;3966;51.052;13.820;2023-04-24T00:29:07;14.20;99.90
7842;DHT22;3966;51.052;13.820;2023-04-24T00:31:32;14.30;99.90
7842;DHT22;3966;51.052;13.820;2023-04-24T00:34:00;13.70;99.90
7842;DHT22;3966;51.052;13.820;2023-04-24T00:36:27;13.40;99.90
7842;DHT22;3966;51.052;13.820;2023-04-24T00:38:54;13.60;99.90
7842;DHT22;3966;51.052;13.820;2023-04-24T00:41:19;14.00;99.90
7842;DHT22;3966;51.052;13.820;2023-04-24T00:43:46;14.20;99.90
7842;DHT22;3966;51.052;13.820;2023-04-24T00:46:12;14.40;99.90
7842;DHT22;3966;51.052;13.820;2023-04-24T00:48:40;14.60;99.90
7842;DHT22;3966;51.052;13.820;2023-04-24T00:51:06;14.60;99.90
7842;DHT22;3966;51.052;13.820;2023-04-24T00:53:32;14.70;99.90
7842;DHT22;3966;51.052;13.820;2023-04-24T00:55:58;14.80;99.90
7842;DHT22;3966;51.052;13.820;2023-04-24T00:58:25;14.80;99.90
7842;DHT22;3966;51.052;13.820;2023-04-24T01:00:52;14.40;99.90
7842;DHT22;3966;51.052;13.820;2023-04-24T01:03:24;14.70;99.90
7842;DHT22;3966;51.052;13.820;2023-04-24T01:05:51;14.70;99.90
7842;DHT22;3966;51.052;13.820;2023-04-24T01:08:18;14.10;99.90
7842;DHT22;3966;51.052;13.820;2023-04-24T01:10:44;13.90;99.90
7842;DHT22;3966;51.052;13.820;2023-04-24T01:13:11;14.20;99.90
7842;DHT22;3966;51.052;13.820;2023-04-24T01:15:37;14.20;99.90
7842;DHT22;3966;51.052;13.820;2023-04-24T01:18:03;14.50;99.90
7842;DHT22;3966;51.052;13.820;2023-04-24T01:20:29;14.40;99.90
7842;DHT22;3966;51.052;13.820;2023-04-24T01:22:55;14.30;99.90
7842;DHT22;3966;51.052;13.820;2023-04-24T01:25:22;13.70;99.90
7842;DHT22;3966;51.052;13.820;2023-04-24T01:27:48;13.90;99.90
7842;DHT22;3966;51.052;13.820;2023-04-24T01:30:14;14.20;99.90
7842;DHT22;3966;51.052;13.820;2023-04-24T01:32:40;14.40;99.90
7842;DHT22;3966;51.052;13.820;2023-04-24T01:35:07;14.40;99.90
7842;DHT22;3966;51.052;13.820;2023-04-24T01:37:33;13.60;99.90
7842;DHT22;3966;51.052;13.820;2023-04-24T01:39:59;13.90;99.90
7842;DHT22;3966;51.052;13.820;2023-04-24T01:42:25;14.10;99.90
7842;DHT22;3966;51.052;13.820;2023-04-24T01:44:50;14.30;99.90
7842;DHT22;3966;51.052;13.820;2023-04-24T01:47:16;14.30;99.90
7842;DHT22;3966;51.052;13.820;2023-04-24T01:49:42;14.00;99.90
7842;DHT22;3966;51.052;13.820;2023-04-24T01:52:08;13.20;99.90
7842;DHT22;3966;51.052;13.820;2023-04-24T01:54:34;13.50;99.90
7842;DHT22;3966;51.052;13.820;2023-04-24T01:56:59;13.80;99.90
7842;DHT22;3966;51.052;13.820;2023-04-24T01:59:28;14.10;99.90
7842;DHT22;3966;51.052;13.820;2023-04-24T02:01:53;14.40;99.90
7842;DHT22;3966;51.052;13.820;2023-04-24T02:04:19;14.30;99.90
7842;DHT22;3966;51.052;13.820;2023-04-24T02:06:45;14.50;99.90
7842;DHT22;3966;51.052;13.820;2023-04-24T02:09:11;14.70;99.90
7842;DHT22;3966;51.052;13.820;2023-04-24T02:11:36;14.50;99.90
7842;DHT22;3966;51.052;13.820;2023-04-24T02:14:02;14.30;99.90
7842;DHT22;3966;51.052;13.820;2023-04-24T02:16:28;14.00;99.90
7842;DHT22;3966;51.052;13.820;2023-04-24T02:18:58;14.30;99.90
7842;DHT22;3966;51.052;13.820;2023-04-24T02:21:23;14.40;99.90
7842;DHT22;3966;51.052;13.820;2023-04-24T02:23:49;14.40;99.90
7842;DHT22;3966;51.052;13.820;2023-04-24T02:26:15;14.00;99.90
7842;DHT22;3966;51.052;13.820;2023-04-24T02:28:40;13.90;99.90
7842;DHT22;3966;51.052;13.820;2023-04-24T02:31:06;13.80;99.90
7842;DHT22;3966;51.052;13.820;2023-04-24T02:33:32;13.70;99.90
7842;DHT22;3966;51.052;13.820;2023-04-24T02:35:57;14.00;99.90
7842;DHT22;3966;51.052;13.820;2023-04-24T02:38:23;14.00;99.90
7842;DHT22;3966;51.052;13.820;2023-04-24T02:40:48;14.30;99.90
7842;DHT22;3966;51.052;13.820;2023-04-24T02:43:14;13.20;99.90
7842;DHT22;3966;51.052;13.820;2023-04-24T02:45:40;12.90;99.90
7842;DHT22;3966;51.052;13.820;2023-04-24T02:48:05;13.40;99.90
7842;DHT22;3966;51.052;13.820;2023-04-24T02:50:31;13.50;99.90
7842;DHT22;3966;51.052;13.820;2023-04-24T02:52:57;13.70;99.90
7842;DHT22;3966;51.052;13.820;2023-04-24T02:55:23;13.80;99.90
7842;DHT22;3966;51.052;13.820;2023-04-24T02:57:48;13.70;99.90
7842;DHT22;3966;51.052;13.820;2023-04-24T03:00:14;13.80;99.90
7842;DHT22;3966;51.052;13.820;2023-04-24T03:02:40;14.00;99.90
7842;DHT22;3966;51.052;13.820;2023-04-24T03:05:05;14.20;99.90
7842;DHT22;3966;51.052;13.820;2023-04-24T03:07:33;14.00;99.90
7842;DHT22;3966;51.052;13.820;2023-04-24T03:09:58;14.20;99.90
7842;DHT22;3966;51.052;13.820;2023-04-24T03:12:24;14.20;99.90
7842;DHT22;3966;51.052;13.820;2023-04-24T03:14:50;14.20;99.90
7842;DHT22;3966;51.052;13.820;2023-04-24T03:17:16;14.20;99.90
7842;DHT22;3966;51.052;13.820;2023-04-24T03:19:41;14.00;99.90
7842;DHT22;3966;51.052;13.820;2023-04-24T03:22:07;14.10;99.90
7842;DHT22;3966;51.052;13.820;2023-04-24T03:24:34;14.10;99.90
7842;DHT22;3966;51.052;13.820;2023-04-24T03:27:00;14.10;99.90
7842;DHT22;3966;51.052;13.820;2023-04-24T03:29:25;13.50;99.90
7842;DHT22;3966;51.052;13.820;2023-04-24T03:31:51;13.50;99.90
7842;DHT22;3966;51.052;13.820;2023-04-24T03:34:17;13.80;99.90
7842;DHT22;3966;51.052;13.820;2023-04-24T03:36:42;13.60;99.90
7842;DHT22;3966;51.052;13.820;2023-04-24T03:39:08;13.80;99.90
7842;DHT22;3966;51.052;13.820;2023-04-24T03:41:33;14.00;99.90
7842;DHT22;3966;51.052;13.820;2023-04-24T03:43:59;14.00;99.90
7842;DHT22;3966;51.052;13.820;2023-04-24T03:46:25;13.80;99.90
7842;DHT22;3966;51.052;13.820;2023-04-24T03:48:51;13.90;99.90
7842;DHT22;3966;51.052;13.820;2023-04-24T03:51:16;13.90;99.90
7842;DHT22;3966;51.052;13.820;2023-04-24T03:53:42;13.80;99.90
7842;DHT22;3966;51.052;13.820;2023-04-24T03:56:08;13.40;99.90
7842;DHT22;3966;51.052;13.820;2023-04-24T03:58:33;13.40;99.90
7842;DHT22;3966;51.052;13.820;2023-04-24T04:00:59;13.60;99.90
7842;DHT22;3966;51.052;13.820;2023-04-24T04:03:25;13.70;99.90
7842;DHT22;3966;51.052;13.820;2023-04-24T04:05:51;13.80;99.90
7842;DHT22;3966;51.052;13.820;2023-04-24T04:08:17;13.80;99.90
7842;DHT22;3966;51.052;13.820;2023-04-24T04:10:42;13.90;99.90
7842;DHT22;3966;51.052;13.820;2023-04-24T04:13:08;13.90;99.90
7842;DHT22;3966;51.052;13.820;2023-04-24T04:15:33;13.70;99.90
7842;DHT22;3966;51.052;13.820;2023-04-24T04:17:59;13.50;99.90
7842;DHT22;3966;51.052;13.820;2023-04-24T04:20:25;13.50;99.90
7842;DHT22;3966;51.052;13.820;2023-04-24T04:22:50;13.60;99.90
7842;DHT22;3966;51.052;13.820;2023-04-24T04:25:16;13.70;99.90
7842;DHT22;3966;51.052;13.820;2023-04-24T04:27:45;13.90;99.90
7842;DHT22;3966;51.052;13.820;2023-04-24T04:30:13;13.90;99.90
7842;DHT22;3966;51.052;13.820;2023-04-24T04:32:39;13.70;99.90
7842;DHT22;3966;51.052;13.820;2023-04-24T04:35:05;13.80;99.90
7842;DHT22;3966;51.052;13.820;2023-04-24T04:37:32;13.90;99.90
7842;DHT22;3966;51.052;13.820;2023-04-24T04:39:59;13.90;99.90
7842;DHT22;3966;51.052;13.820;2023-04-24T04:42:25;14.10;99.90
7842;DHT22;3966;51.052;13.820;2023-04-24T04:44:52;14.30;99.90
7842;DHT22;3966;51.052;13.820;2023-04-24T04:47:18;14.30;99.90
7842;DHT22;3966;51.052;13.820;2023-04-24T04:49:47;14.20;99.90
7842;DHT22;3966;51.052;13.820;2023-04-24T04:52:13;14.20;99.90
7842;DHT22;3966;51.052;13.820;2023-04-24T04:54:39;14.30;99.90
7842;DHT22;3966;51.052;13.820;2023-04-24T04:57:05;14.40;99.90
7842;DHT22;3966;51.052;13.820;2023-04-24T04:59:31;14.40;99.90
7842;DHT22;3966;51.052;13.820;2023-04-24T05:01:56;14.60;99.90
7842;DHT22;3966;51.052;13.820;2023-04-24T05:04:22;14.60;99.90
7842;DHT22;3966;51.052;13.820;2023-04-24T05:06:48;14.60;99.90
7842;DHT22;3966;51.052;13.820;2023-04-24T05:09:13;14.70;99.90
7842;DHT22;3966;51.052;13.820;2023-04-24T05:11:39;14.70;99.90
7842;DHT22;3966;51.052;13.820;2023-04-24T05:14:05;14.70;99.90
7842;DHT22;3966;51.052;13.820;2023-04-24T05:16:30;14.70;99.90
7842;DHT22;3966;51.052;13.820;2023-04-24T05:18:57;14.80;99.90
7842;DHT22;3966;51.052;13.820;2023-04-24T05:21:22;14.90;99.90
7842;DHT22;3966;51.052;13.820;2023-04-24T05:23:48;15.00;99.90
7842;DHT22;3966;51.052;13.820;2023-04-24T05:26:14;14.90;99.90
7842;DHT22;3966;51.052;13.820;2023-04-24T05:28:40;14.90;99.90
7842;DHT22;3966;51.052;13.820;2023-04-24T05:31:06;15.00;99.90
7842;DHT22;3966;51.052;13.820;2023-04-24T05:33:32;15.10;99.90
7842;DHT22;3966;51.052;13.820;2023-04-24T05:35:57;15.10;99.90
7842;DHT22;3966;51.052;13.820;2023-04-24T05:38:23;15.00;99.90
7842;DHT22;3966;51.052;13.820;2023-04-24T05:40:49;14.90;99.90
7842;DHT22;3966;51.052;13.820;2023-04-24T05:43:14;15.00;99.90
7842;DHT22;3966;51.052;13.820;2023-04-24T05:45:40;15.10;99.90
7842;DHT22;3966;51.052;13.820;2023-04-24T05:48:06;15.00;99.90
7842;DHT22;3966;51.052;13.820;2023-04-24T05:50:31;14.90;99.90
7842;DHT22;3966;51.052;13.820;2023-04-24T05:52:57;15.10;99.90
7842;DHT22;3966;51.052;13.820;2023-04-24T05:55:27;15.20;99.90
7842;DHT22;3966;51.052;13.820;2023-04-24T05:57:53;15.20;99.90
7842;DHT22;3966;51.052;13.820;2023-04-24T06:00:19;15.30;99.90
7842;DHT22;3966;51.052;13.820;2023-04-24T06:02:46;15.30;99.90
7842;DHT22;3966;51.052;13.820;2023-04-24T06:05:12;15.40;99.90
7842;DHT22;3966;51.052;13.820;2023-04-24T06:07:38;15.30;99.90
7842;DHT22;3966;51.052;13.820;2023-04-24T06:10:03;15.30;99.90
7842;DHT22;3966;51.052;13.820;2023-04-24T06:12:29;15.40;99.90
7842;DHT22;3966;51.052;13.820;2023-04-24T06:14:55;15.60;99.90
7842;DHT22;3966;51.052;13.820;2023-04-24T06:17:21;15.60;99.90
7842;DHT22;3966;51.052;13.820;2023-04-24T06:19:47;15.60;99.90
7842;DHT22;3966;51.052;13.820;2023-04-24T06:22:13;15.40;99.90
7842;DHT22;3966;51.052;13.820;2023-04-24T06:24:39;15.50;99.90
7842;DHT22;3966;51.052;13.820;2023-04-24T06:27:05;15.50;99.90
7842;DHT22;3966;51.052;13.820;2023-04-24T06:29:32;15.60;99.90
7842;DHT22;3966;51.052;13.820;2023-04-24T06:31:58;15.60;99.90
7842;DHT22;3966;51.052;13.820;2023-04-24T06:34:24;15.70;99.90
7842;DHT22;3966;51.052;13.820;2023-04-24T06:36:50;15.70;99.90
7842;DHT22;3966;51.052;13.820;2023-04-24T06:39:16;15.80;99.90
7842;DHT22;3966;51.052;13.820;2023-04-24T06:41:41;15.70;99.90
7842;DHT22;3966;51.052;13.820;2023-04-24T06:44:07;15.70;99.90
7842;DHT22;3966;51.052;13.820;2023-04-24T06:46:33;15.70;99.90
7842;DHT22;3966;51.052;13.820;2023-04-24T06:48:58;15.80;99.90
7842;DHT22;3966;51.052;13.820;2023-04-24T06:51:25;15.90;99.90
7842;DHT22;3966;51.052;13.820;2023-04-24T06:53:52;15.90;99.90
7842;DHT22;3966;51.052;13.820;2023-04-24T06:56:18;15.70;99.90
7842;DHT22;3966;51.052;13.820;2023-04-24T06:58:44;15.70;99.90
7842;DHT22;3966;51.052;13.820;2023-04-24T07:01:10;15.70;99.90
7842;DHT22;3966;51.052;13.820;2023-04-24T07:03:36;15.20;99.90
7842;DHT22;3966;51.052;13.820;2023-04-24T07:06:02;15.20;99.90
7842;DHT22;3966;51.052;13.820;2023-04-24T07:08:29;15.30;99.90
7842;DHT22;3966;51.052;13.820;2023-04-24T07:10:56;15.40;99.90
7842;DHT22;3966;51.052;13.820;2023-04-24T07:13:22;15.40;99.90
7842;DHT22;3966;51.052;13.820;2023-04-24T07:15:48;15.40;99.90
7842;DHT22;3966;51.052;13.820;2023-04-24T07:18:16;15.40;99.90
7842;DHT22;3966;51.052;13.820;2023-04-24T07:20:42;15.40;99.90
7842;DHT22;3966;51.052;13.820;2023-04-24T07:23:07;15.50;99.90
7842;DHT22;3966;51.052;13.820;2023-04-24T07:25:33;15.50;99.90
7842;DHT22;3966;51.052;13.820;2023-04-24T07:27:59;15.60;99.90
7842;DHT22;3966;51.052;13.820;2023-04-24T07:30:24;15.80;99.90
7842;DHT22;3966;51.052;13.820;2023-04-24T07:32:51;16.10;99.90
7842;DHT22;3966;51.052;13.820;2023-04-24T07:35:16;16.40;99.90
7842;DHT22;3966;51.052;13.820;2023-04-24T07:37:42;16.50;99.90
7842;DHT22;3966;51.052;13.820;2023-04-24T07:40:12;16.50;99.90
7842;DHT22;3966;51.052;13.820;2023-04-24T07:42:38;16.20;99.90
7842;DHT22;3966;51.052;13.820;2023-04-24T07:45:04;16.00;99.90
7842;DHT22;3966;51.052;13.820;2023-04-24T07:47:30;16.00;99.90
7842;DHT22;3966;51.052;13.820;2023-04-24T07:49:56;15.90;99.90
7842;DHT22;3966;51.052;13.820;2023-04-24T07:52:22;16.10;99.90
7842;DHT22;3966;51.052;13.820;2023-04-24T07:54:48;16.20;99.90
7842;DHT22;3966;51.052;13.820;2023-04-24T07:57:15;16.30;99.90
7842;DHT22;3966;51.052;13.820;2023-04-24T07:59:41;16.40;99.90
7842;DHT22;3966;51.052;13.820;2023-04-24T08:02:06;16.50;99.90
7842;DHT22;3966;51.052;13.820;2023-04-24T08:04:32;16.60;99.90
7842;DHT22;3966;51.052;13.820;2023-04-24T08:06:58;16.60;99.90
7842;DHT22;3966;51.052;13.820;2023-04-24T08:09:24;16.70;99.90
7842;DHT22;3966;51.052;13.820;2023-04-24T08:11:50;16.60;99.90
7842;DHT22;3966;51.052;13.820;2023-04-24T08:14:15;16.70;99.90
7842;DHT22;3966;51.052;13.820;2023-04-24T08:16:41;16.60;99.90
7842;DHT22;3966;51.052;13.820;2023-04-24T08:19:07;16.60;99.90
7842;DHT22;3966;51.052;13.820;2023-04-24T08:21:32;16.70;99.90
7842;DHT22;3966;51.052;13.820;2023-04-24T08:23:58;16.80;99.90
7842;DHT22;3966;51.052;13.820;2023-04-24T08:26:24;16.80;99.90
7842;DHT22;3966;51.052;13.820;2023-04-24T08:28:50;16.40;99.90
7842;DHT22;3966;51.052;13.820;2023-04-24T08:31:15;16.20;99.90
7842;DHT22;3966;51.052;13.820;2023-04-24T08:33:41;16.40;99.90
7842;DHT22;3966;51.052;13.820;2023-04-24T08:36:07;16.50;99.90
7842;DHT22;3966;51.052;13.820;2023-04-24T08:38:33;16.60;99.90
7842;DHT22;3966;51.052;13.820;2023-04-24T08:41:00;16.80;99.90
7842;DHT22;3966;51.052;13.820;2023-04-24T08:43:26;16.70;99.90
7842;DHT22;3966;51.052;13.820;2023-04-24T08:45:55;16.80;99.90
7842;DHT22;3966;51.052;13.820;2023-04-24T08:48:22;16.80;99.90
7842;DHT22;3966;51.052;13.820;2023-04-24T08:50:51;16.70;99.90
7842;DHT22;3966;51.052;13.820;2023-04-24T08:53:18;16.70;99.90
7842;DHT22;3966;51.052;13.820;2023-04-24T08:55:47;16.80;99.90
7842;DHT22;3966;51.052;13.820;2023-04-24T08:58:15;16.60;99.90
7842;DHT22;3966;51.052;13.820;2023-04-24T09:00:41;16.50;99.90
7842;DHT22;3966;51.052;13.820;2023-04-24T09:03:16;16.40;99.90
7842;DHT22;3966;51.052;13.820;2023-04-24T09:05:46;16.50;99.90
7842;DHT22;3966;51.052;13.820;2023-04-24T09:08:16;16.60;99.90
7842;DHT22;3966;51.052;13.820;2023-04-24T09:10:42;16.60;99.90
7842;DHT22;3966;51.052;13.820;2023-04-24T09:13:08;16.80;99.90
7842;DHT22;3966;51.052;13.820;2023-04-24T09:15:36;16.80;99.90
7842;DHT22;3966;51.052;13.820;2023-04-24T09:18:02;16.90;99.90
7842;DHT22;3966;51.052;13.820;2023-04-24T09:20:28;16.50;99.90
7842;DHT22;3966;51.052;13.820;2023-04-24T09:22:54;16.40;99.90
7842;DHT22;3966;51.052;13.820;2023-04-24T09:25:31;16.40;99.90
7842;DHT22;3966;51.052;13.820;2023-04-24T09:28:00;16.50;99.90
7842;DHT22;3966;51.052;13.820;2023-04-24T09:30:27;16.40;99.90
7842;DHT22;3966;51.052;13.820;2023-04-24T09:33:19;16.10;99.90
7842;DHT22;3966;51.052;13.820;2023-04-24T09:35:51;16.00;99.90
7842;DHT22;3966;51.052;13.820;2023-04-24T09:38:17;16.00;99.90
7842;DHT22;3966;51.052;13.820;2023-04-24T09:40:43;16.20;99.90
7842;DHT22;3966;51.052;13.820;2023-04-24T09:43:11;16.10;99.90
7842;DHT22;3966;51.052;13.820;2023-04-24T09:45:38;16.10;99.90
7842;DHT22;3966;51.052;13.820;2023-04-24T09:48:05;16.40;99.90
7842;DHT22;3966;51.052;13.820;2023-04-24T09:50:32;16.40;99.90
7842;DHT22;3966;51.052;13.820;2023-04-24T09:52:59;16.30;99.90
7842;DHT22;3966;51.052;13.820;2023-04-24T09:55:26;15.80;99.90
7842;DHT22;3966;51.052;13.820;2023-04-24T09:57:56;16.00;99.90
7842;DHT22;3966;51.052;13.820;2023-04-24T10:00:26;15.90;99.90
7842;DHT22;3966;51.052;13.820;2023-04-24T10:03:00;16.00;99.90
7842;DHT22;3966;51.052;13.820;2023-04-24T10:08:03;15.90;99.90
7842;DHT22;3966;51.052;13.820;2023-04-24T10:10:35;15.80;99.90
7842;DHT22;3966;51.052;13.820;2023-04-24T10:13:03;15.90;99.90
7842;DHT22;3966;51.052;13.820;2023-04-24T10:15:30;15.90;99.90
7842;DHT22;3966;51.052;13.820;2023-04-24T10:17:58;15.90;99.90
7842;DHT22;3966;51.052;13.820;2023-04-24T10:20:25;16.10;99.90
7842;DHT22;3966;51.052;13.820;2023-04-24T10:22:53;15.90;99.90
7842;DHT22;3966;51.052;13.820;2023-04-24T10:25:20;15.90;99.90
7842;DHT22;3966;51.052;13.820;2023-04-24T10:27:48;15.80;99.90
7842;DHT22;3966;51.052;13.820;2023-04-24T10:30:15;16.20;99.90
7842;DHT22;3966;51.052;13.820;2023-04-24T10:32:41;16.30;99.90
7842;DHT22;3966;51.052;13.820;2023-04-24T10:35:11;16.30;99.90
7842;DHT22;3966;51.052;13.820;2023-04-24T10:37:54;16.50;99.90
7842;DHT22;3966;51.052;13.820;2023-04-24T10:40:27;16.50;99.90
7842;DHT22;3966;51.052;13.820;2023-04-24T10:42:56;16.50;99.90
7842;DHT22;3966;51.052;13.820;2023-04-24T10:45:23;16.80;99.90
7842;DHT22;3966;51.052;13.820;2023-04-24T10:47:53;16.60;99.90
7842;DHT22;3966;51.052;13.820;2023-04-24T10:50:19;16.40;99.90
7842;DHT22;3966;51.052;13.820;2023-04-24T10:52:48;16.50;99.90
7842;DHT22;3966;51.052;13.820;2023-04-24T10:55:25;16.70;99.90
7842;DHT22;3966;51.052;13.820;2023-04-24T10:58:03;16.80;99.90
7842;DHT22;3966;51.052;13.820;2023-04-24T11:00:30;17.00;99.90
7842;DHT22;3966;51.052;13.820;2023-04-24T11:02:56;17.10;99.90
7842;DHT22;3966;51.052;13.820;2023-04-24T11:05:52;17.30;99.90
7842;DHT22;3966;51.052;13.820;2023-04-24T11:11:18;17.40;99.90
7842;DHT22;3966;51.052;13.820;2023-04-24T11:16:39;16.80;99.90
7842;DHT22;3966;51.052;13.820;2023-04-24T11:26:54;16.40;99.90
7842;DHT22;3966;51.052;13.820;2023-04-24T11:29:21;16.40;99.90
7842;DHT22;3966;51.052;13.820;2023-04-24T11:31:47;16.50;99.90
7842;DHT22;3966;51.052;13.820;2023-04-24T11:34:17;16.60;99.90
7842;DHT22;3966;51.052;13.820;2023-04-24T11:36:46;16.70;99.90
7842;DHT22;3966;51.052;13.820;2023-04-24T11:39:13;16.80;99.90
7842;DHT22;3966;51.052;13.820;2023-04-24T11:41:39;16.70;99.90
7842;DHT22;3966;51.052;13.820;2023-04-24T11:44:07;16.60;99.90
7842;DHT22;3966;51.052;13.820;2023-04-24T11:46:33;16.40;99.90
7842;DHT22;3966;51.052;13.820;2023-04-24T11:48:59;16.60;99.90
7842;DHT22;3966;51.052;13.820;2023-04-24T11:51:26;16.80;99.90
7842;DHT22;3966;51.052;13.820;2023-04-24T11:53:56;16.90;99.90
7842;DHT22;3966;51.052;13.820;2023-04-24T11:56:23;17.10;99.90
7842;DHT22;3966;51.052;13.820;2023-04-24T11:58:52;17.30;99.90
7842;DHT22;3966;51.052;13.820;2023-04-24T12:01:18;17.50;99.90
7842;DHT22;3966;51.052;13.820;2023-04-24T12:03:47;17.60;99.90
7842;DHT22;3966;51.052;13.820;2023-04-24T12:06:13;17.60;99.90
7842;DHT22;3966;51.052;13.820;2023-04-24T12:08:39;17.60;99.90
7842;DHT22;3966;51.052;13.820;2023-04-24T12:11:06;17.40;99.90
7842;DHT22;3966;51.052;13.820;2023-04-24T12:13:35;17.70;99.90
7842;DHT22;3966;51.052;13.820;2023-04-24T12:16:03;18.30;99.90
7842;DHT22;3966;51.052;13.820;2023-04-24T12:18:30;18.30;99.90
7842;DHT22;3966;51.052;13.820;2023-04-24T12:21:15;17.70;99.90
7842;DHT22;3966;51.052;13.820;2023-04-24T12:23:43;17.30;99.90
7842;DHT22;3966;51.052;13.820;2023-04-24T12:26:09;17.00;99.90
7842;DHT22;3966;51.052;13.820;2023-04-24T12:28:39;16.70;99.90
7842;DHT22;3966;51.052;13.820;2023-04-24T12:31:06;16.50;99.90
7842;DHT22;3966;51.052;13.820;2023-04-24T12:33:33;16.50;99.90
7842;DHT22;3966;51.052;13.820;2023-04-24T12:36:00;16.40;99.90
7842;DHT22;3966;51.052;13.820;2023-04-24T12:38:26;16.50;99.90
7842;DHT22;3966;51.052;13.820;2023-04-24T12:41:10;16.70;99.90
7842;DHT22;3966;51.052;13.820;2023-04-24T12:43:36;16.70;99.90
7842;DHT22;3966;51.052;13.820;2023-04-24T12:46:03;16.60;99.90
7842;DHT22;3966;51.052;13.820;2023-04-24T12:48:29;16.90;99.90
7842;DHT22;3966;51.052;13.820;2023-04-24T12:50:57;16.80;99.60
7842;DHT22;3966;51.052;13.820;2023-04-24T12:53:26;17.40;99.90
7842;DHT22;3966;51.052;13.820;2023-04-24T12:55:53;17.50;99.50
7842;DHT22;3966;51.052;13.820;2023-04-24T12:58:20;17.70;99.50
7842;DHT22;3966;51.052;13.820;2023-04-24T13:00:46;17.30;99.90
7842;DHT22;3966;51.052;13.820;2023-04-24T13:03:12;17.10;99.90
7842;DHT22;3966;51.052;13.820;2023-04-24T13:05:38;16.80;99.90
7842;DHT22;3966;51.052;13.820;2023-04-24T13:08:04;16.80;99.90
7842;DHT22;3966;51.052;13.820;2023-04-24T13:10:30;16.70;99.90
7842;DHT22;3966;51.052;13.820;2023-04-24T13:12:56;16.70;99.90
7842;DHT22;3966;51.052;13.820;2023-04-24T13:15:21;16.70;99.90
7842;DHT22;3966;51.052;13.820;2023-04-24T13:17:47;16.90;99.90
7842;DHT22;3966;51.052;13.820;2023-04-24T13:20:13;16.80;99.00
7842;DHT22;3966;51.052;13.820;2023-04-24T13:22:38;16.80;98.20
7842;DHT22;3966;51.052;13.820;2023-04-24T13:25:04;17.00;99.20
7842;DHT22;3966;51.052;13.820;2023-04-24T13:27:31;17.00;97.10
7842;DHT22;3966;51.052;13.820;2023-04-24T13:29:57;17.00;93.50
7842;DHT22;3966;51.052;13.820;2023-04-24T13:32:22;17.30;93.00
7842;DHT22;3966;51.052;13.820;2023-04-24T13:34:48;17.30;92.80
7842;DHT22;3966;51.052;13.820;2023-04-24T13:37:13;17.40;91.60
7842;DHT22;3966;51.052;13.820;2023-04-24T13:39:40;17.60;92.60
7842;DHT22;3966;51.052;13.820;2023-04-24T13:42:06;18.30;93.00
7842;DHT22;3966;51.052;13.820;2023-04-24T13:44:32;18.30;91.90
7842;DHT22;3966;51.052;13.820;2023-04-24T13:46:58;18.60;90.90
7842;DHT22;3966;51.052;13.820;2023-04-24T13:49:24;18.10;90.30
7842;DHT22;3966;51.052;13.820;2023-04-24T13:51:50;17.80;88.00
7842;DHT22;3966;51.052;13.820;2023-04-24T13:54:16;17.40;86.50
7842;DHT22;3966;51.052;13.820;2023-04-24T13:56:42;17.40;85.60
7842;DHT22;3966;51.052;13.820;2023-04-24T13:59:08;17.60;85.50
7842;DHT22;3966;51.052;13.820;2023-04-24T14:01:34;17.20;83.10
7842;DHT22;3966;51.052;13.820;2023-04-24T14:04:00;16.90;83.10
7842;DHT22;3966;51.052;13.820;2023-04-24T14:06:25;17.00;84.30
7842;DHT22;3966;51.052;13.820;2023-04-24T14:08:51;17.50;84.60
7842;DHT22;3966;51.052;13.820;2023-04-24T14:11:17;17.80;84.50
7842;DHT22;3966;51.052;13.820;2023-04-24T14:13:44;18.00;82.90
7842;DHT22;3966;51.052;13.820;2023-04-24T14:16:10;18.00;81.90
7842;DHT22;3966;51.052;13.820;2023-04-24T14:18:36;18.50;82.50
7842;DHT22;3966;51.052;13.820;2023-04-24T14:21:05;18.00;83.20
7842;DHT22;3966;51.052;13.820;2023-04-24T14:23:31;17.40;81.70
7842;DHT22;3966;51.052;13.820;2023-04-24T14:25:57;17.50;83.20
7842;DHT22;3966;51.052;13.820;2023-04-24T14:28:23;17.80;83.00
7842;DHT22;3966;51.052;13.820;2023-04-24T14:30:49;18.00;82.70
7842;DHT22;3966;51.052;13.820;2023-04-24T14:33:15;17.50;84.30
7842;DHT22;3966;51.052;13.820;2023-04-24T14:35:41;17.70;83.00
7842;DHT22;3966;51.052;13.820;2023-04-24T14:38:10;17.60;85.00
7842;DHT22;3966;51.052;13.820;2023-04-24T14:40:36;17.70;84.20
7842;DHT22;3966;51.052;13.820;2023-04-24T14:43:02;18.10;81.20
7842;DHT22;3966;51.052;13.820;2023-04-24T14:45:28;18.10;82.30
7842;DHT22;3966;51.052;13.820;2023-04-24T14:47:54;18.30;82.80
7842;DHT22;3966;51.052;13.820;2023-04-24T14:50:20;18.20;82.30
7842;DHT22;3966;51.052;13.820;2023-04-24T14:52:47;18.50;80.90
7842;DHT22;3966;51.052;13.820;2023-04-24T14:55:13;18.40;79.70
7842;DHT22;3966;51.052;13.820;2023-04-24T14:57:39;18.90;80.70
7842;DHT22;3966;51.052;13.820;2023-04-24T15:00:08;19.00;77.70
7842;DHT22;3966;51.052;13.820;2023-04-24T15:02:35;19.10;78.30
7842;DHT22;3966;51.052;13.820;2023-04-24T15:05:03;18.30;79.70
7842;DHT22;3966;51.052;13.820;2023-04-24T15:07:29;18.20;80.60
7842;DHT22;3966;51.052;13.820;2023-04-24T15:09:56;18.40;80.00
7842;DHT22;3966;51.052;13.820;2023-04-24T15:12:22;18.70;81.60
7842;DHT22;3966;51.052;13.820;2023-04-24T15:14:47;18.60;81.20
7842;DHT22;3966;51.052;13.820;2023-04-24T15:17:13;18.70;80.90
7842;DHT22;3966;51.052;13.820;2023-04-24T15:19:39;18.80;78.30
7842;DHT22;3966;51.052;13.820;2023-04-24T15:22:06;18.30;78.70
7842;DHT22;3966;51.052;13.820;2023-04-24T15:24:32;18.40;78.60
7842;DHT22;3966;51.052;13.820;2023-04-24T15:26:59;18.20;77.70
7842;DHT22;3966;51.052;13.820;2023-04-24T15:29:25;18.30;77.50
7842;DHT22;3966;51.052;13.820;2023-04-24T15:31:53;18.20;76.00
7842;DHT22;3966;51.052;13.820;2023-04-24T15:34:19;17.30;77.30
7842;DHT22;3966;51.052;13.820;2023-04-24T15:36:46;17.50;78.50
7842;DHT22;3966;51.052;13.820;2023-04-24T15:39:11;17.40;78.30
7842;DHT22;3966;51.052;13.820;2023-04-24T15:41:37;17.30;80.10
7842;DHT22;3966;51.052;13.820;2023-04-24T15:44:03;17.00;78.90
7842;DHT22;3966;51.052;13.820;2023-04-24T15:46:29;16.90;80.80
7842;DHT22;3966;51.052;13.820;2023-04-24T15:48:54;16.80;81.30
7842;DHT22;3966;51.052;13.820;2023-04-24T15:51:20;16.70;82.30
7842;DHT22;3966;51.052;13.820;2023-04-24T15:53:46;16.50;82.50
7842;DHT22;3966;51.052;13.820;2023-04-24T15:56:12;16.20;83.80
7842;DHT22;3966;51.052;13.820;2023-04-24T15:58:38;16.20;84.60